Time;durP1;ratioP1;P1;durP2;ratioP2;P2;SDS_P1;SDS_P2;PMS_P1;PMS_P2;Temp;Humidity;BMP_temperature;BMP_pressure;BME280_temperature;BME280_humidity;BME280_pressure;Samples;Min_cycle;Max_cycle;Signal;HPM_P1;HPM_P2
2022/10/26 00:00:04;;;;;;;;;;;;;;;-144.43;100.00;67396.00;4882960;29;19920;-61
2022/10/26 00:02:37;;;;;;;;;;;;;;;-144.43;100.00;67396.00;4882644;29;19931;-61
2022/10/26 00:05:04;;;;;;;;;;;;;;;-144.43;100.00;67396.00;4882597;29;19951;-61
2022/10/26 00:07:30;;;;;;;;;;;;;;;-144.43;100.00;67396.00;4882633;29;19926;-62
2022/10/26 00:09:57;;;;;;;;;;;;;;;-144.43;100.00;67396.00;4882692;29;20393;-61
2022/10/26 00:12:23;;;;;;;;;;;;;;;-144.43;100.00;67396.00;4882583;29;20001;-61
2022/10/26 00:14:49;;;;;;;;;;;;;;;-144.43;100.00;67396.00;4882391;29;19980;-61
2022/10/26 00:17:16;;;;;;;;;;;;;;;-144.43;100.00;67396.00;4882515;29;20442;-61
2022/10/26 00:19:42;;;;;;;;;;;;;;;-144.43;100.00;67396.00;4882435;29;19930;-61
2022/10/26 00:22:08;;;;;;;;;;;;;;;-144.43;100.00;67396.00;4882447;29;20366;-61
2022/10/26 00:24:34;;;;;;;;;;;;;;;-144.43;100.00;67396.00;4882780;29;19924;-61
2022/10/26 00:27:00;;;;;;;;;;;;;;;-144.43;100.00;67396.00;4882193;29;19919;-61
2022/10/26 00:29:27;;;;;;;;;;;;;;;-144.43;100.00;67396.00;4865757;29;20394;-61
2022/10/26 00:31:53;;;;;;;;;;;;;;;-144.43;100.00;67396.00;4881139;29;20438;-60
2022/10/26 00:34:19;;;;;;;;;;;;;;;-144.43;100.00;67396.00;4882138;29;19971;-61
2022/10/26 00:36:45;;;;;;;;;;;;;;;-144.43;100.00;67396.00;4882029;29;20271;-61
2022/10/26 00:39:12;;;;;;;;;;;;;;;-144.43;100.00;67396.00;4882166;29;19924;-61
2022/10/26 00:41:39;;;;;;;;;;;;;;;-144.43;100.00;67396.00;4882087;29;19924;-61
2022/10/26 00:44:23;;;;;;;;;;;;;;;-144.43;100.00;67396.00;4881942;29;20414;-61
2022/10/26 00:46:50;;;;;;;;;;;;;;;-144.43;100.00;67396.00;4881824;29;19931;-61
2022/10/26 00:49:18;;;;;;;;;;;;;;;-144.43;100.00;67396.00;4881729;29;20023;-60
2022/10/26 00:51:47;;;;;;;;;;;;;;;-144.43;100.00;67396.00;4880670;29;19947;-61
2022/10/26 00:54:17;;;;;;;;;;;;;;;-144.43;100.00;67396.00;4881993;29;19920;-61
2022/10/26 00:56:44;;;;;;;;;;;;;;;-144.43;100.00;67396.00;4881775;29;19919;-61
2022/10/26 00:59:12;;;;;;;;;;;;;;;-144.43;100.00;67396.00;4881776;29;19942;-61
2022/10/26 01:01:40;;;;;;;;;;;;;;;-144.43;100.00;67396.00;4881868;29;19935;-61
2022/10/26 01:04:06;;;;;;;;;;;;;;;-144.43;100.00;67396.00;4881611;29;20285;-61
2022/10/26 01:06:34;;;;;;;;;;;;;;;-144.43;100.00;67396.00;4881710;29;19924;-61
2022/10/26 01:09:00;;;;;;;;;;;;;;;-144.43;100.00;67396.00;4881537;29;19920;-61
2022/10/26 01:11:27;;;;;;;;;;;;;;;-144.43;100.00;67396.00;4881341;29;20007;-61
2022/10/26 01:13:54;;;;;;;;;;;;;;;-144.43;100.00;67396.00;4881280;29;19920;-61
2022/10/26 01:16:32;;;;;;;;;;;;;;;-144.43;100.00;67396.00;4881231;29;19928;-60
2022/10/26 01:19:08;;;;;;;;;;;;;;;-144.43;100.00;67396.00;4881369;29;19972;-61
2022/10/26 01:21:40;;;;;;;;;;;;;;;-144.43;100.00;67396.00;4881122;29;19930;-60
2022/10/26 01:24:17;;;;;;;;;;;;;;;-144.43;100.00;67396.00;4879716;29;19930;-60
2022/10/26 01:27:10;;;;;;;;;;;;;;;-144.43;100.00;67396.00;4881494;29;19966;-60
2022/10/26 01:29:49;;;;;;;;;;;;;;;-144.43;100.00;67396.00;4866138;29;19930;-60
2022/10/26 01:32:22;;;;;;;;;;;;;;;-144.43;100.00;67396.00;4881038;29;19924;-60
2022/10/26 01:34:55;;;;;;;;;;;;;;;-144.43;100.00;67396.00;4880868;29;19927;-60
2022/10/26 01:37:24;;;;;;;;;;;;;;;-144.43;100.00;67396.00;4881157;29;19919;-60
2022/10/26 01:39:57;;;;;;;;;;;;;;;-144.43;100.00;67396.00;4880962;29;20294;-60
2022/10/26 01:42:25;;;;;;;;;;;;;;;-144.43;100.00;67396.00;4879529;29;19976;-60
2022/10/26 01:44:57;;;;;;;;;;;;;;;-144.43;100.00;67396.00;4880777;29;19926;-61
2022/10/26 01:47:25;;;;;;;;;;;;;;;-144.43;100.00;67396.00;4880717;29;19926;-59
2022/10/26 01:49:55;;;;;;;;;;;;;;;-144.43;100.00;67396.00;4880622;29;19922;-60
2022/10/26 01:52:22;;;;;;;;;;;;;;;-144.43;100.00;67396.00;4880541;29;20026;-60
2022/10/26 01:54:48;;;;;;;;;;;;;;;-144.43;100.00;67396.00;4880397;29;19919;-61
2022/10/26 01:57:18;;;;;;;;;;;;;;;-144.43;100.00;67396.00;4880465;29;19924;-61
2022/10/26 02:00:06;;;;;;;;;;;;;;;-144.43;100.00;67396.00;4880393;29;19930;-60
2022/10/26 02:02:43;;;;;;;;;;;;;;;-144.43;100.00;67396.00;4874034;29;19947;-61
2022/10/26 02:05:31;;;;;;;;;;;;;;;-144.43;100.00;67396.00;4880374;29;20394;-61
2022/10/26 02:08:33;;;;;;;;;;;;;;;-144.43;100.00;67396.00;4880096;29;19923;-62
2022/10/26 02:11:18;;;;;;;;;;;;;;;-144.43;100.00;67396.00;4871877;29;19931;-61
2022/10/26 02:13:44;;;;;;;;;;;;;;;-144.43;100.00;67396.00;4880008;29;19923;-61
2022/10/26 02:16:34;;;;;;;;;;;;;;;-144.43;100.00;67396.00;4879736;29;19928;-61
2022/10/26 02:19:20;;;;;;;;;;;;;;;-144.43;100.00;67396.00;4879748;29;19927;-61
2022/10/26 02:21:50;;;;;;;;;;;;;;;-144.43;100.00;67396.00;4853937;29;19924;-58
2022/10/26 02:24:17;;;;;;;;;;;;;;;-144.43;100.00;67396.00;4879793;29;19998;-60
2022/10/26 02:26:46;;;;;;;;;;;;;;;-144.43;100.00;67396.00;4879869;29;20001;-60
2022/10/26 02:29:15;;;;;;;;;;;;;;;-144.43;100.00;67396.00;4879909;29;19919;-59
2022/10/26 02:31:42;;;;;;;;;;;;;;;-144.43;100.00;67396.00;4880098;29;20338;-60
2022/10/26 02:34:11;;;;;;;;;;;;;;;-144.43;100.00;67396.00;4880233;29;19931;-58
2022/10/26 02:36:40;;;;;;;;;;;;;;;-144.43;100.00;67396.00;4879749;29;20003;-59
2022/10/26 02:39:08;;;;;;;;;;;;;;;-144.43;100.00;67396.00;4880028;29;19935;-59
2022/10/26 02:41:35;;;;;;;;;;;;;;;-144.43;100.00;67396.00;4879729;29;20014;-61
2022/10/26 02:44:30;;;;;;;;;;;;;;;-144.43;100.00;67396.00;4879833;29;19971;-60
2022/10/26 02:46:57;;;;;;;;;;;;;;;-144.43;100.00;67396.00;4867678;29;19932;-60
2022/10/26 02:49:23;;;;;;;;;;;;;;;-144.43;100.00;67396.00;4879658;29;20432;-60
2022/10/26 02:51:56;;;;;;;;;;;;;;;-144.43;100.00;67396.00;4879590;29;19994;-59
2022/10/26 02:54:34;;;;;;;;;;;;;;;-144.43;100.00;67396.00;4879828;29;19924;-59
2022/10/26 02:57:02;;;;;;;;;;;;;;;-144.43;100.00;67396.00;4879603;29;20385;-59
2022/10/26 02:59:31;;;;;;;;;;;;;;;-144.43;100.00;67396.00;4879603;29;19963;-59
2022/10/26 03:01:59;;;;;;;;;;;;;;;-144.43;100.00;67396.00;4879509;29;19962;-60
2022/10/26 03:04:32;;;;;;;;;;;;;;;-144.43;100.00;67396.00;4879526;29;19947;-60
2022/10/26 03:06:59;;;;;;;;;;;;;;;-144.43;100.00;67396.00;4879800;29;19931;-60
2022/10/26 03:09:25;;;;;;;;;;;;;;;-144.43;100.00;67396.00;4879646;29;19948;-59
2022/10/26 03:11:52;;;;;;;;;;;;;;;-144.43;100.00;67396.00;4878917;29;20370;-59
2022/10/26 03:14:19;;;;;;;;;;;;;;;-144.43;100.00;67396.00;4877599;29;20339;-60
2022/10/26 03:16:45;;;;;;;;;;;;;;;-144.43;100.00;67396.00;4879514;29;19924;-60
2022/10/26 03:19:11;;;;;;;;;;;;;;;-144.43;100.00;67396.00;4862714;29;19920;-60
2022/10/26 03:21:37;;;;;;;;;;;;;;;-144.43;100.00;67396.00;4879332;29;20342;-60
2022/10/26 03:24:04;;;;;;;;;;;;;;;-144.43;100.00;67396.00;4879431;29;19938;-60
2022/10/26 03:26:30;;;;;;;;;;;;;;;-144.43;100.00;67396.00;4879427;29;19924;-59
2022/10/26 03:28:56;;;;;;;;;;;;;;;-144.43;100.00;67396.00;4879260;29;19962;-60
2022/10/26 03:31:23;;;;;;;;;;;;;;;-144.43;100.00;67396.00;4877970;29;20344;-60
2022/10/26 03:33:49;;;;;;;;;;;;;;;-144.43;100.00;67396.00;4879259;29;20018;-60
2022/10/26 03:36:15;;;;;;;;;;;;;;;-144.43;100.00;67396.00;4879149;29;19919;-60
2022/10/26 03:38:41;;;;;;;;;;;;;;;-144.43;100.00;67396.00;4879368;29;19920;-60
2022/10/26 03:41:08;;;;;;;;;;;;;;;-144.43;100.00;67396.00;4879277;29;19920;-59
2022/10/26 03:43:34;;;;;;;;;;;;;;;-144.43;100.00;67396.00;4879085;29;20006;-61
2022/10/26 03:46:00;;;;;;;;;;;;;;;-144.43;100.00;67396.00;4879233;29;20032;-62
2022/10/26 03:48:26;;;;;;;;;;;;;;;-144.43;100.00;67396.00;4879162;29;19928;-61
2022/10/26 03:50:56;;;;;;;;;;;;;;;-144.43;100.00;67396.00;4879155;29;19988;-61
2022/10/26 03:53:22;;;;;;;;;;;;;;;-144.43;100.00;67396.00;4879237;29;19967;-60
2022/10/26 03:55:48;;;;;;;;;;;;;;;-144.43;100.00;67396.00;4879053;29;20394;-61
2022/10/26 03:58:15;;;;;;;;;;;;;;;-144.43;100.00;67396.00;4879118;29;19927;-60
2022/10/26 04:00:41;;;;;;;;;;;;;;;-144.43;100.00;67396.00;4878677;29;20390;-61
2022/10/26 04:03:07;;;;;;;;;;;;;;;-144.43;100.00;67396.00;4863833;29;19927;-62
2022/10/26 04:05:33;;;;;;;;;;;;;;;-144.43;100.00;67396.00;4860658;29;20030;-61
2022/10/26 04:08:04;;;;;;;;;;;;;;;-144.43;100.00;67396.00;4860461;29;20423;-61
2022/10/26 04:10:30;;;;;;;;;;;;;;;-144.43;100.00;67396.00;4860686;29;19925;-62
2022/10/26 04:12:59;;;;;;;;;;;;;;;-144.43;100.00;67396.00;4860408;29;19927;-61
2022/10/26 04:15:25;;;;;;;;;;;;;;;-144.43;100.00;67396.00;4860281;29;19924;-60
2022/10/26 04:17:54;;;;;;;;;;;;;;;-144.43;100.00;67396.00;4860434;29;19924;-61
2022/10/26 04:20:21;;;;;;;;;;;;;;;-144.43;100.00;67396.00;4860542;29;19976;-61
2022/10/26 04:22:47;;;;;;;;;;;;;;;-144.43;100.00;67396.00;4860185;29;20396;-60
2022/10/26 04:25:13;;;;;;;;;;;;;;;-144.43;100.00;67396.00;4863078;29;19928;-61
2022/10/26 04:27:39;;;;;;;;;;;;;;;-144.43;100.00;67396.00;4863682;29;19920;-62
2022/10/26 04:30:08;;;;;;;;;;;;;;;-144.43;100.00;67396.00;4863648;29;19920;-60
2022/10/26 04:32:35;;;;;;;;;;;;;;;-144.43;100.00;67396.00;4863508;29;19927;-61
2022/10/26 04:35:01;;;;;;;;;;;;;;;-144.43;100.00;67396.00;4863652;29;19968;-62
2022/10/26 04:37:27;;;;;;;;;;;;;;;-144.43;100.00;67396.00;4863494;29;20335;-60
2022/10/26 04:39:54;;;;;;;;;;;;;;;-144.43;100.00;67396.00;4863631;29;20450;-61
2022/10/26 04:42:20;;;;;;;;;;;;;;;-144.43;100.00;67396.00;4863329;29;19916;-59
2022/10/26 04:44:46;;;;;;;;;;;;;;;-144.43;100.00;67396.00;4863216;29;19939;-60
2022/10/26 04:47:12;;;;;;;;;;;;;;;-144.43;100.00;67396.00;4863232;29;19999;-59
2022/10/26 04:49:38;;;;;;;;;;;;;;;-144.43;100.00;67396.00;4863202;29;19928;-63
2022/10/26 04:52:05;;;;;;;;;;;;;;;-144.43;100.00;67396.00;4863258;29;19927;-60
2022/10/26 04:54:31;;;;;;;;;;;;;;;-144.43;100.00;67396.00;4863162;29;19924;-59
2022/10/26 04:56:58;;;;;;;;;;;;;;;-144.43;100.00;67396.00;4863083;29;19920;-60
2022/10/26 04:59:24;;;;;;;;;;;;;;;-144.43;100.00;67396.00;4863141;29;19924;-59
2022/10/26 05:01:50;;;;;;;;;;;;;;;-144.43;100.00;67396.00;4863051;29;19943;-61
2022/10/26 05:04:17;;;;;;;;;;;;;;;-144.43;100.00;67396.00;4862926;29;20374;-60
2022/10/26 05:06:43;;;;;;;;;;;;;;;-144.43;100.00;67396.00;4862752;29;20321;-58
2022/10/26 05:09:09;;;;;;;;;;;;;;;-144.43;100.00;67396.00;4863404;29;19924;-61
2022/10/26 05:11:35;;;;;;;;;;;;;;;-144.43;100.00;67396.00;4862774;29;19976;-61
2022/10/26 05:14:02;;;;;;;;;;;;;;;-144.43;100.00;67396.00;4862887;29;19924;-61
2022/10/26 05:16:28;;;;;;;;;;;;;;;-144.43;100.00;67396.00;4862596;29;19924;-60
2022/10/26 05:18:54;;;;;;;;;;;;;;;-144.43;100.00;67396.00;4862885;29;20018;-60
2022/10/26 05:21:21;;;;;;;;;;;;;;;-144.43;100.00;67396.00;4862674;29;19928;-60
2022/10/26 05:23:54;;;;;;;;;;;;;;;-144.43;100.00;67396.00;4862954;29;19928;-61
2022/10/26 05:26:21;;;;;;;;;;;;;;;-144.43;100.00;67396.00;4862401;29;19931;-61
2022/10/26 05:28:47;;;;;;;;;;;;;;;-144.43;100.00;67396.00;4862597;29;20341;-59
2022/10/26 05:31:14;;;;;;;;;;;;;;;-144.43;100.00;67396.00;4862815;29;20271;-59
2022/10/26 05:33:40;;;;;;;;;;;;;;;-144.43;100.00;67396.00;4862488;29;19927;-59
2022/10/26 05:36:06;;;;;;;;;;;;;;;-144.43;100.00;67396.00;4861421;29;19920;-60
2022/10/26 05:38:32;;;;;;;;;;;;;;;-144.43;100.00;67396.00;4862244;29;19927;-60
2022/10/26 05:41:00;;;;;;;;;;;;;;;-144.43;100.00;67396.00;4846081;29;19924;-60
2022/10/26 05:43:26;;;;;;;;;;;;;;;-144.43;100.00;67396.00;4862058;29;19975;-61
2022/10/26 05:45:53;;;;;;;;;;;;;;;-144.43;100.00;67396.00;4862412;29;19928;-60
2022/10/26 05:48:20;;;;;;;;;;;;;;;-144.43;100.00;67396.00;4862120;29;19928;-61
2022/10/26 05:50:46;;;;;;;;;;;;;;;-144.43;100.00;67396.00;4862244;29;19972;-59
2022/10/26 05:53:12;;;;;;;;;;;;;;;-144.43;100.00;67396.00;4862113;29;19920;-62
2022/10/26 05:55:39;;;;;;;;;;;;;;;-144.43;100.00;67396.00;4862305;29;20374;-61
2022/10/26 05:58:09;;;;;;;;;;;;;;;-144.43;100.00;67396.00;4862161;29;20347;-61
2022/10/26 06:00:37;;;;;;;;;;;;;;;-144.43;100.00;67396.00;4862235;29;19924;-60
2022/10/26 06:03:08;;;;;;;;;;;;;;;-144.43;100.00;67396.00;4861670;29;19920;-61
2022/10/26 06:05:37;;;;;;;;;;;;;;;-144.43;100.00;67396.00;4861416;29;19928;-61
2022/10/26 06:08:07;;;;;;;;;;;;;;;-144.43;100.00;67396.00;4861985;29;19920;-60
2022/10/26 06:10:34;;;;;;;;;;;;;;;-144.43;100.00;67396.00;4861857;29;19924;-61
2022/10/26 06:13:00;;;;;;;;;;;;;;;-144.43;100.00;67396.00;4845132;29;20024;-60
2022/10/26 06:15:27;;;;;;;;;;;;;;;-144.43;100.00;67396.00;4861551;29;20458;-60
2022/10/26 06:18:10;;;;;;;;;;;;;;;-144.43;100.00;67396.00;4861651;29;19932;-60
2022/10/26 06:20:49;;;;;;;;;;;;;;;-144.43;100.00;67396.00;4861669;29;19932;-60
2022/10/26 06:23:22;;;;;;;;;;;;;;;-144.43;100.00;67396.00;4861476;29;19988;-60
2022/10/26 06:25:56;;;;;;;;;;;;;;;-144.43;100.00;67396.00;4861587;29;20349;-61
2022/10/26 06:28:41;;;;;;;;;;;;;;;-144.43;100.00;67396.00;4861484;29;19924;-61
2022/10/26 06:31:07;;;;;;;;;;;;;;;-144.43;100.00;67396.00;4861495;29;20438;-61
2022/10/26 06:33:34;;;;;;;;;;;;;;;-144.43;100.00;67396.00;4861506;29;19927;-61
2022/10/26 06:36:12;;;;;;;;;;;;;;;-144.43;100.00;67396.00;4861453;29;19924;-61
2022/10/26 06:38:43;;;;;;;;;;;;;;;-144.43;100.00;67396.00;4861279;29;19928;-61
2022/10/26 06:41:11;;;;;;;;;;;;;;;-144.43;100.00;67396.00;4861293;29;19920;-61
2022/10/26 06:43:37;;;;;;;;;;;;;;;-144.43;100.00;67396.00;4861213;29;19928;-62
2022/10/26 06:46:13;;;;;;;;;;;;;;;-144.43;100.00;67396.00;4861272;29;19924;-60
2022/10/26 06:48:58;;;;;;;;;;;;;;;-144.43;100.00;67396.00;4861225;29;19960;-61
2022/10/26 06:51:24;;;;;;;;;;;;;;;-144.43;100.00;67396.00;4861219;29;19924;-60
2022/10/26 06:53:57;;;;;;;;;;;;;;;-144.43;100.00;67396.00;4868654;29;19924;-62
2022/10/26 06:56:23;;;;;;;;;;;;;;;-144.43;100.00;67396.00;4879749;29;19924;-60
2022/10/26 06:58:52;;;;;;;;;;;;;;;-144.43;100.00;67396.00;4879708;29;20015;-61
2022/10/26 07:01:18;;;;;;;;;;;;;;;-144.43;100.00;67396.00;4879579;29;19924;-60
2022/10/26 07:03:44;;;;;;;;;;;;;;;-144.43;100.00;67396.00;4879515;29;19920;-61
2022/10/26 07:06:11;;;;;;;;;;;;;;;-144.43;100.00;67396.00;4879501;29;19924;-60
2022/10/26 07:08:37;;;;;;;;;;;;;;;-144.43;100.00;67396.00;4879545;29;19943;-61
2022/10/26 07:11:04;;;;;;;;;;;;;;;-144.43;100.00;67396.00;4879466;29;19930;-61
2022/10/26 07:13:30;;;;;;;;;;;;;;;-144.43;100.00;67396.00;4863072;29;19972;-60
2022/10/26 07:15:57;;;;;;;;;;;;;;;-144.43;100.00;67396.00;4879269;29;19928;-61
2022/10/26 07:18:23;;;;;;;;;;;;;;;-144.43;100.00;67396.00;4879676;29;19995;-61
2022/10/26 07:20:49;;;;;;;;;;;;;;;-144.43;100.00;67396.00;4879405;29;19931;-61
2022/10/26 07:23:15;;;;;;;;;;;;;;;-144.43;100.00;67396.00;4878721;29;19927;-61
2022/10/26 07:25:42;;;;;;;;;;;;;;;-144.43;100.00;67396.00;4879390;29;20387;-62
2022/10/26 07:28:09;;;;;;;;;;;;;;;-144.43;100.00;67396.00;4878906;29;19947;-62
2022/10/26 07:30:36;;;;;;;;;;;;;;;-144.43;100.00;67396.00;4866117;29;19990;-60
2022/10/26 07:33:04;;;;;;;;;;;;;;;-144.43;100.00;67396.00;4867939;29;19951;-60
2022/10/26 07:35:31;;;;;;;;;;;;;;;-144.43;100.00;67396.00;4869934;29;19931;-60
2022/10/26 07:37:58;;;;;;;;;;;;;;;-144.43;100.00;67396.00;4865112;29;20382;-59
2022/10/26 07:40:25;;;;;;;;;;;;;;;-144.43;100.00;67396.00;4871884;29;20002;-60
2022/10/26 07:42:51;;;;;;;;;;;;;;;-144.43;100.00;67396.00;4863099;29;19981;-59
2022/10/26 07:45:18;;;;;;;;;;;;;;;-144.43;100.00;67396.00;4875120;29;20394;-60
2022/10/26 07:47:45;;;;;;;;;;;;;;;-144.43;100.00;67396.00;4866340;29;20339;-61
2022/10/26 07:50:11;;;;;;;;;;;;;;;-144.43;100.00;67396.00;4868132;29;19924;-61
2022/10/26 07:52:40;;;;;;;;;;;;;;;-144.43;100.00;67396.00;4873491;29;19936;-60
2022/10/26 07:55:07;;;;;;;;;;;;;;;-144.43;100.00;67396.00;4863114;29;19924;-60
2022/10/26 07:57:34;;;;;;;;;;;;;;;-144.43;100.00;67396.00;4872761;29;19928;-60
2022/10/26 08:00:01;;;;;;;;;;;;;;;-144.43;100.00;67396.00;4891431;29;20382;-59
2022/10/26 08:02:30;;;;;;;;;;;;;;;-144.43;100.00;67396.00;4901162;29;19926;-60
2022/10/26 08:04:56;;;;;;;;;;;;;;;-144.43;100.00;67396.00;4901534;29;19935;-59
2022/10/26 08:07:24;;;;;;;;;;;;;;;-144.43;100.00;67396.00;4901246;29;19991;-59
2022/10/26 08:09:51;;;;;;;;;;;;;;;-144.43;100.00;67396.00;4883096;29;19975;-58
2022/10/26 08:12:18;;;;;;;;;;;;;;;-144.43;100.00;67396.00;4900827;29;19951;-59
2022/10/26 08:14:44;;;;;;;;;;;;;;;-144.43;100.00;67396.00;4900772;29;19924;-59
2022/10/26 08:17:11;;;;;;;;;;;;;;;-144.43;100.00;67396.00;4900101;29;19923;-59
2022/10/26 08:19:37;;;;;;;;;;;;;;;-144.43;100.00;67396.00;4900490;29;19924;-59
2022/10/26 08:22:03;;;;;;;;;;;;;;;-144.43;100.00;67396.00;4900623;29;19949;-58
2022/10/26 08:24:29;;;;;;;;;;;;;;;-144.43;100.00;67396.00;4900741;29;19948;-60
2022/10/26 08:26:56;;;;;;;;;;;;;;;-144.43;100.00;67396.00;4900647;29;19924;-58
2022/10/26 08:29:22;;;;;;;;;;;;;;;-144.43;100.00;67396.00;4900827;29;20362;-57
2022/10/26 08:31:48;;;;;;;;;;;;;;;-144.43;100.00;67396.00;4900623;29;20083;-58
2022/10/26 08:34:15;;;;;;;;;;;;;;;-144.43;100.00;67396.00;4900631;29;19927;-60
2022/10/26 08:36:41;;;;;;;;;;;;;;;-144.43;100.00;67396.00;4900673;29;19931;-59
2022/10/26 08:39:07;;;;;;;;;;;;;;;-144.43;100.00;67396.00;4900872;29;20060;-58
2022/10/26 08:41:35;;;;;;;;;;;;;;;-144.43;100.00;67396.00;4899710;29;19923;-59
2022/10/26 08:44:20;;;;;;;;;;;;;;;-144.43;100.00;67396.00;4900071;29;20300;-60
2022/10/26 08:46:50;;;;;;;;;;;;;;;-144.43;100.00;67396.00;4900795;29;19923;-60
2022/10/26 08:49:28;;;;;;;;;;;;;;;-144.43;100.00;67396.00;4900629;29;19919;-60
2022/10/26 08:51:57;;;;;;;;;;;;;;;-144.43;100.00;67396.00;4900659;29;19927;-61
2022/10/26 08:54:36;;;;;;;;;;;;;;;-144.43;100.00;67396.00;4900506;29;19916;-61
2022/10/26 08:57:10;;;;;;;;;;;;;;;-144.43;100.00;67396.00;4900434;29;20059;-60
2022/10/26 08:59:42;;;;;;;;;;;;;;;-144.43;100.00;67396.00;4900415;29;20042;-58
2022/10/26 09:02:12;;;;;;;;;;;;;;;-144.43;100.00;67396.00;4900218;29;19975;-60
2022/10/26 09:04:39;;;;;;;;;;;;;;;-144.43;100.00;67396.00;4899869;29;20503;-60
2022/10/26 09:07:10;;;;;;;;;;;;;;;-144.43;100.00;67396.00;4900194;29;19943;-60
2022/10/26 09:09:54;;;;;;;;;;;;;;;-144.43;100.00;67396.00;4899980;29;19919;-59
2022/10/26 09:12:26;;;;;;;;;;;;;;;-144.43;100.00;67396.00;4899954;29;19924;-59
2022/10/26 09:14:52;;;;;;;;;;;;;;;-144.43;100.00;67396.00;4881080;29;19928;-58
2022/10/26 09:17:19;;;;;;;;;;;;;;;-144.43;100.00;67396.00;4881296;29;20079;-60
2022/10/26 09:20:03;;;;;;;;;;;;;;;-144.43;100.00;67396.00;4881240;29;20395;-59
2022/10/26 09:22:52;;;;;;;;;;;;;;;-144.43;100.00;67396.00;4881285;29;19923;-59
2022/10/26 09:25:20;;;;;;;;;;;;;;;-144.43;100.00;67396.00;4864308;29;19924;-59
2022/10/26 09:27:53;;;;;;;;;;;;;;;-144.43;100.00;67396.00;4880443;29;19923;-59
2022/10/26 09:30:20;;;;;;;;;;;;;;;-144.43;100.00;67396.00;4881185;29;20397;-59
2022/10/26 09:32:54;;;;;;;;;;;;;;;-144.43;100.00;67396.00;4881211;29;19924;-59
2022/10/26 09:35:30;;;;;;;;;;;;;;;-144.43;100.00;67396.00;4881201;29;19924;-60
2022/10/26 09:38:12;;;;;;;;;;;;;;;-144.43;100.00;67396.00;4881013;29;20010;-59
2022/10/26 09:40:41;;;;;;;;;;;;;;;-144.43;100.00;67396.00;4881217;29;20383;-58
2022/10/26 09:43:07;;;;;;;;;;;;;;;-144.43;100.00;67396.00;4881059;29;19923;-60
2022/10/26 09:45:50;;;;;;;;;;;;;;;-144.43;100.00;67396.00;4879631;29;19971;-59
2022/10/26 09:48:26;;;;;;;;;;;;;;;-144.43;100.00;67396.00;4880133;29;19924;-61
2022/10/26 09:50:52;;;;;;;;;;;;;;;-144.43;100.00;67396.00;4879934;29;19931;-60
2022/10/26 09:53:19;;;;;;;;;;;;;;;-144.43;100.00;67396.00;4880740;29;19939;-60
2022/10/26 09:55:46;;;;;;;;;;;;;;;-144.43;100.00;67396.00;4880589;29;19924;-58
2022/10/26 09:58:15;;;;;;;;;;;;;;;-144.43;100.00;67396.00;4880313;29;19975;-58
2022/10/26 10:00:41;;;;;;;;;;;;;;;-144.43;100.00;67396.00;4880727;29;19986;-58
2022/10/26 10:03:26;;;;;;;;;;;;;;;-144.43;100.00;67396.00;4867392;29;19924;-59
2022/10/26 10:05:53;;;;;;;;;;;;;;;-144.43;100.00;67396.00;4861313;29;20103;-58
2022/10/26 10:08:23;;;;;;;;;;;;;;;-144.43;100.00;67396.00;4861862;29;20441;-59
2022/10/26 10:11:10;;;;;;;;;;;;;;;-144.43;100.00;67396.00;4861939;29;20022;-58
2022/10/26 10:13:38;;;;;;;;;;;;;;;-144.43;100.00;67396.00;4861948;29;19924;-59
2022/10/26 10:16:12;;;;;;;;;;;;;;;-144.43;100.00;67396.00;4861613;29;20004;-58
2022/10/26 10:18:39;;;;;;;;;;;;;;;-144.43;100.00;67396.00;4861623;29;19924;-59
2022/10/26 10:21:06;;;;;;;;;;;;;;;-144.43;100.00;67396.00;4861495;29;19927;-59
2022/10/26 10:23:34;;;;;;;;;;;;;;;-144.43;100.00;67396.00;4861397;29;20323;-59
2022/10/26 10:26:09;;;;;;;;;;;;;;;-144.43;100.00;67396.00;4861572;29;19920;-59
2022/10/26 10:28:36;;;;;;;;;;;;;;;-144.43;100.00;67396.00;4861627;29;19992;-59
2022/10/26 10:31:04;;;;;;;;;;;;;;;-144.43;100.00;67396.00;4861516;29;20007;-59
2022/10/26 10:33:32;;;;;;;;;;;;;;;-144.43;100.00;67396.00;4861459;29;19924;-60
2022/10/26 10:35:59;;;;;;;;;;;;;;;-144.43;100.00;67396.00;4861426;29;19928;-59
2022/10/26 10:38:25;;;;;;;;;;;;;;;-144.43;100.00;67396.00;4861282;29;20061;-60
2022/10/26 10:40:54;;;;;;;;;;;;;;;-144.43;100.00;67396.00;4861355;29;19928;-58
2022/10/26 10:43:21;;;;;;;;;;;;;;;-144.43;100.00;67396.00;4861024;29;19924;-57
2022/10/26 10:45:49;;;;;;;;;;;;;;;-144.43;100.00;67396.00;4861421;29;19972;-58
2022/10/26 10:48:17;;;;;;;;;;;;;;;-144.43;100.00;67396.00;4861254;29;19928;-59
2022/10/26 10:50:55;;;;;;;;;;;;;;;-144.43;100.00;67396.00;4861179;29;19920;-59
2022/10/26 10:53:40;;;;;;;;;;;;;;;-144.43;100.00;67396.00;4861035;29;19936;-59
2022/10/26 10:56:29;;;;;;;;;;;;;;;-144.43;100.00;67396.00;4861271;29;20409;-60
2022/10/26 10:59:14;;;;;;;;;;;;;;;-144.43;100.00;67396.00;4856031;29;20332;-59
2022/10/26 11:01:49;;;;;;;;;;;;;;;-144.43;100.00;67396.00;4861076;29;19996;-59
2022/10/26 11:04:18;;;;;;;;;;;;;;;-144.43;100.00;67396.00;4860922;29;19925;-60
2022/10/26 11:06:47;;;;;;;;;;;;;;;-144.43;100.00;67396.00;4861183;29;19924;-59
2022/10/26 11:09:16;;;;;;;;;;;;;;;-144.43;100.00;67396.00;4860993;29;19928;-61
2022/10/26 11:11:42;;;;;;;;;;;;;;;-144.43;100.00;67396.00;4861011;29;20319;-60
2022/10/26 11:14:15;;;;;;;;;;;;;;;-144.43;100.00;67396.00;4860996;29;20351;-61
2022/10/26 11:16:43;;;;;;;;;;;;;;;-144.43;100.00;67396.00;4861288;29;19945;-61
2022/10/26 11:19:09;;;;;;;;;;;;;;;-144.43;100.00;67396.00;4861018;29;20019;-60
2022/10/26 11:21:38;;;;;;;;;;;;;;;-144.43;100.00;67396.00;4861051;29;19924;-58
2022/10/26 11:24:14;;;;;;;;;;;;;;;-144.43;100.00;67396.00;4860611;29;19920;-58
2022/10/26 11:26:40;;;;;;;;;;;;;;;-144.43;100.00;67396.00;4860948;29;20412;-59
2022/10/26 11:29:17;;;;;;;;;;;;;;;-144.43;100.00;67396.00;4860658;29;19920;-58
2022/10/26 11:31:48;;;;;;;;;;;;;;;-144.43;100.00;67396.00;4860766;29;20346;-58
2022/10/26 11:34:30;;;;;;;;;;;;;;;-144.43;100.00;67396.00;4861618;29;19920;-58
2022/10/26 11:37:02;;;;;;;;;;;;;;;-144.43;100.00;67396.00;4864578;29;19934;-60
2022/10/26 11:39:43;;;;;;;;;;;;;;;-144.43;100.00;67396.00;4864372;29;19924;-60
2022/10/26 11:42:25;;;;;;;;;;;;;;;-144.43;100.00;67396.00;4864565;29;19981;-58
2022/10/26 11:45:02;;;;;;;;;;;;;;;-144.43;100.00;67396.00;4863233;29;20297;-58
2022/10/26 11:47:47;;;;;;;;;;;;;;;-144.43;100.00;67396.00;4864320;29;19946;-58
2022/10/26 11:50:17;;;;;;;;;;;;;;;-144.43;100.00;67396.00;4864385;29;19924;-58
2022/10/26 11:52:56;;;;;;;;;;;;;;;-144.43;100.00;67396.00;4863058;29;19920;-58
2022/10/26 11:55:23;;;;;;;;;;;;;;;-144.43;100.00;67396.00;4864193;29;19947;-60
2022/10/26 11:57:50;;;;;;;;;;;;;;;-144.43;100.00;67396.00;4864282;29;19920;-59
2022/10/26 12:00:20;;;;;;;;;;;;;;;-144.43;100.00;67396.00;4864194;29;19931;-58
2022/10/26 12:02:49;;;;;;;;;;;;;;;-144.43;100.00;67396.00;4869470;29;19923;-59
2022/10/26 12:05:15;;;;;;;;;;;;;;;-144.43;100.00;67396.00;4901611;29;19919;-58
2022/10/26 12:07:55;;;;;;;;;;;;;;;-144.43;100.00;67396.00;4901077;29;19930;-59
2022/10/26 12:10:32;;;;;;;;;;;;;;;-144.43;100.00;67396.00;4901388;29;19923;-59
2022/10/26 12:13:01;;;;;;;;;;;;;;;-144.43;100.00;67396.00;4901416;29;19946;-59
2022/10/26 12:15:39;;;;;;;;;;;;;;;-144.43;100.00;67396.00;4900772;29;20282;-58
2022/10/26 12:18:13;;;;;;;;;;;;;;;-144.43;100.00;67396.00;4901072;29;19960;-59
2022/10/26 12:20:42;;;;;;;;;;;;;;;-144.43;100.00;67396.00;4901005;29;19934;-61
2022/10/26 12:23:10;;;;;;;;;;;;;;;-144.43;100.00;67396.00;4901169;29;19926;-59
2022/10/26 12:25:36;;;;;;;;;;;;;;;-144.43;100.00;67396.00;4900972;29;19967;-60
2022/10/26 12:28:02;;;;;;;;;;;;;;;-144.43;100.00;67396.00;4900845;29;19915;-59
2022/10/26 12:30:29;;;;;;;;;;;;;;;-144.43;100.00;67396.00;4897152;29;20295;-59